createdAt,value
2022-07-29T00:00:19.614Z,18.70
2022-07-29T00:00:51.413Z,18.60
2022-07-29T00:01:23.218Z,18.60
2022-07-29T00:01:57.318Z,18.60
2022-07-29T00:02:38.945Z,17.90
2022-07-29T00:03:17.313Z,18.60
2022-07-29T00:03:55.435Z,18.60
2022-07-29T00:04:30.197Z,18.60
2022-07-29T00:05:02.618Z,18.60
2022-07-29T00:05:34.420Z,18.60
2022-07-29T00:06:06.424Z,18.60
2022-07-29T00:06:38.301Z,18.60
2022-07-29T00:07:10.286Z,18.50
2022-07-29T00:07:42.988Z,18.60
2022-07-29T00:08:16.443Z,18.50
2022-07-29T00:08:48.250Z,18.50
2022-07-29T00:09:20.070Z,18.50
2022-07-29T00:09:52.691Z,18.50
2022-07-29T00:10:24.582Z,18.60
2022-07-29T00:10:56.409Z,18.50
2022-07-29T00:11:28.202Z,18.50
2022-07-29T00:12:01.961Z,18.50
2022-07-29T00:12:33.789Z,16.20
2022-07-29T00:13:06.443Z,18.50
2022-07-29T00:13:38.412Z,18.40
2022-07-29T00:14:10.432Z,18.50
2022-07-29T00:14:42.208Z,18.40
2022-07-29T00:15:16.229Z,18.40
2022-07-29T00:15:47.997Z,18.40
2022-07-29T00:16:19.859Z,18.40
2022-07-29T00:16:51.784Z,18.40
2022-07-29T00:17:24.709Z,18.40
2022-07-29T00:17:56.492Z,18.40
2022-07-29T00:18:28.365Z,18.40
2022-07-29T00:19:02.593Z,18.40
2022-07-29T00:19:35.171Z,18.40
2022-07-29T00:20:07.813Z,18.70
2022-07-29T00:20:39.616Z,18.30
2022-07-29T00:21:11.534Z,18.30
2022-07-29T00:21:43.334Z,18.30
2022-07-29T00:22:15.318Z,18.30
2022-07-29T00:22:47.111Z,18.30
2022-07-29T00:23:18.951Z,18.30
2022-07-29T00:23:50.724Z,18.30
2022-07-29T00:24:22.529Z,18.30
2022-07-29T00:24:54.318Z,18.30
2022-07-29T00:25:26.230Z,18.30
2022-07-29T00:25:58.045Z,18.30
2022-07-29T00:26:32.582Z,18.30
2022-07-29T00:27:04.426Z,18.30
2022-07-29T00:27:37.324Z,18.20
2022-07-29T00:28:09.363Z,18.10
2022-07-29T00:28:41.217Z,18.20
2022-07-29T00:30:06.263Z,18.20
2022-07-29T00:30:38.070Z,18.20
2022-07-29T00:31:09.917Z,18.20
2022-07-29T00:31:41.862Z,18.20
2022-07-29T00:32:13.953Z,18.20
2022-07-29T00:32:45.843Z,18.20
2022-07-29T00:33:17.718Z,18.20
2022-07-29T00:33:49.577Z,18.10
2022-07-29T00:34:39.940Z,18.10
2022-07-29T00:35:30.599Z,18.10
2022-07-29T00:36:02.369Z,18.10
2022-07-29T00:36:34.138Z,18.10
2022-07-29T00:37:05.925Z,18.10
2022-07-29T00:37:39.988Z,18.10
2022-07-29T00:38:16.958Z,18.00
2022-07-29T00:38:49.991Z,18.00
2022-07-29T00:39:21.942Z,18.10
2022-07-29T00:39:53.842Z,18.00
2022-07-29T00:40:25.961Z,18.00
2022-07-29T00:40:57.726Z,18.00
2022-07-29T00:41:29.551Z,18.00
2022-07-29T00:42:05.088Z,18.00
2022-07-29T00:42:47.695Z,18.00
2022-07-29T00:43:19.559Z,18.00
2022-07-29T00:43:51.446Z,18.00
2022-07-29T00:44:23.250Z,18.10
2022-07-29T00:44:55.118Z,18.00
2022-07-29T00:45:27.036Z,18.00
2022-07-29T00:45:58.938Z,18.00
2022-07-29T00:46:30.853Z,18.00
2022-07-29T00:47:02.680Z,18.00
2022-07-29T00:47:34.503Z,17.90
2022-07-29T00:48:07.516Z,17.90
2022-07-29T00:48:39.779Z,17.90
2022-07-29T00:49:11.974Z,17.90
2022-07-29T00:49:44.025Z,17.90
2022-07-29T00:50:16.095Z,17.90
2022-07-29T00:50:49.750Z,17.90
2022-07-29T00:51:21.587Z,17.90
2022-07-29T00:51:53.634Z,17.90
2022-07-29T00:52:26.070Z,17.90
2022-07-29T00:52:58.003Z,17.90
2022-07-29T00:53:31.250Z,17.80
2022-07-29T00:54:04.111Z,17.90
2022-07-29T00:54:44.056Z,17.80
2022-07-29T00:55:17.700Z,17.80
2022-07-29T00:55:49.583Z,17.80
2022-07-29T00:56:21.649Z,17.90
2022-07-29T00:56:54.289Z,17.80
2022-07-29T00:57:26.137Z,17.80
2022-07-29T00:57:59.608Z,17.90
2022-07-29T00:58:32.709Z,17.80
2022-07-29T00:59:04.540Z,17.80
2022-07-29T00:59:36.384Z,17.80
2022-07-29T01:00:28.556Z,17.80
2022-07-29T01:01:00.682Z,17.80
2022-07-29T01:01:32.553Z,17.70
2022-07-29T01:02:04.629Z,17.70
2022-07-29T01:02:36.865Z,17.70
2022-07-29T01:03:09.360Z,17.80
2022-07-29T01:03:41.131Z,17.70
2022-07-29T01:04:13.292Z,17.70
2022-07-29T01:04:46.337Z,17.70
2022-07-29T01:05:21.203Z,17.70
2022-07-29T01:05:55.179Z,17.60
2022-07-29T01:06:27.944Z,17.60
2022-07-29T01:07:02.750Z,17.70
2022-07-29T01:07:37.780Z,17.60
2022-07-29T01:08:11.878Z,17.60
2022-07-29T01:08:45.222Z,17.60
2022-07-29T01:09:18.910Z,17.60
2022-07-29T01:10:14.235Z,17.60
2022-07-29T01:10:48.200Z,17.50
2022-07-29T01:11:21.103Z,17.60
2022-07-29T01:11:53.637Z,17.60
2022-07-29T01:12:32.745Z,17.60
2022-07-29T01:13:05.825Z,17.60
2022-07-29T01:13:41.166Z,17.60
2022-07-29T01:14:13.863Z,17.60
2022-07-29T01:14:48.548Z,17.60
2022-07-29T01:15:20.970Z,17.50
2022-07-29T01:16:04.355Z,17.50
2022-07-29T01:17:03.542Z,17.50
2022-07-29T01:17:59.088Z,17.50
2022-07-29T01:18:40.157Z,17.50
2022-07-29T01:19:42.798Z,17.50
2022-07-29T01:20:51.514Z,17.50
2022-07-29T01:21:53.156Z,17.50
2022-07-29T01:22:45.969Z,17.40
2022-07-29T01:23:42.199Z,17.40
2022-07-29T01:24:43.525Z,17.40
2022-07-29T01:25:40.173Z,17.40
2022-07-29T01:26:33.328Z,17.40
2022-07-29T01:27:42.273Z,17.30
2022-07-29T01:28:45.373Z,17.40
2022-07-29T01:29:44.705Z,17.30
2022-07-29T01:30:19.926Z,17.30
2022-07-29T01:30:56.545Z,17.30
2022-07-29T01:31:59.278Z,17.30
2022-07-29T01:32:36.384Z,17.30
2022-07-29T01:33:34.699Z,17.30
2022-07-29T01:34:09.789Z,17.30
2022-07-29T01:35:13.334Z,17.20
2022-07-29T01:35:46.619Z,17.30
2022-07-29T01:36:36.994Z,17.30
2022-07-29T01:37:24.688Z,17.20
2022-07-29T01:38:11.895Z,17.20
2022-07-29T01:38:51.036Z,17.20
2022-07-29T01:39:35.938Z,17.20
2022-07-29T01:40:29.382Z,17.20
2022-07-29T01:41:09.778Z,17.20
2022-07-29T01:41:50.310Z,17.20
2022-07-29T01:42:31.008Z,17.20
2022-07-29T01:43:11.243Z,17.10
2022-07-29T01:43:54.580Z,17.10
2022-07-29T01:44:46.733Z,17.10
2022-07-29T01:45:27.377Z,17.10
2022-07-29T01:46:05.314Z,17.10
2022-07-29T01:46:42.127Z,17.10
2022-07-29T01:47:21.287Z,17.10
2022-07-29T01:48:04.232Z,17.10
2022-07-29T01:48:49.749Z,17.10
2022-07-29T01:49:28.179Z,17.10
2022-07-29T01:50:02.431Z,17.10
2022-07-29T01:50:59.961Z,17.10
2022-07-29T01:51:41.827Z,17.00
2022-07-29T01:52:26.792Z,17.00
2022-07-29T01:53:03.570Z,17.00
2022-07-29T01:54:10.553Z,17.00
2022-07-29T01:54:53.304Z,17.00
2022-07-29T01:55:30.520Z,17.00
2022-07-29T01:56:04.357Z,17.20
2022-07-29T01:56:38.950Z,17.00
2022-07-29T01:57:14.189Z,17.00
2022-07-29T01:57:48.926Z,17.00
2022-07-29T01:58:22.602Z,17.00
2022-07-29T01:58:57.244Z,17.00
2022-07-29T01:59:31.315Z,17.00
2022-07-29T02:00:05.541Z,17.00
2022-07-29T02:00:46.088Z,17.00
2022-07-29T02:01:19.852Z,17.00
2022-07-29T02:01:54.958Z,17.00
2022-07-29T02:02:29.399Z,17.00
2022-07-29T02:03:16.588Z,17.30
2022-07-29T02:03:49.860Z,17.00
2022-07-29T02:04:29.283Z,17.00
2022-07-29T02:05:04.212Z,17.00
2022-07-29T02:05:41.036Z,17.00
2022-07-29T02:06:17.050Z,17.00
2022-07-29T02:06:51.826Z,17.40
2022-07-29T02:07:28.736Z,15.30
2022-07-29T02:08:03.369Z,17.10
2022-07-29T02:08:38.270Z,16.90
2022-07-29T02:09:14.106Z,15.10
2022-07-29T02:09:48.164Z,16.90
2022-07-29T02:10:25.663Z,16.90
2022-07-29T02:11:01.504Z,16.90
2022-07-29T02:11:35.877Z,16.90
2022-07-29T02:12:10.093Z,17.20
2022-07-29T02:12:48.547Z,16.90
2022-07-29T02:13:26.587Z,16.90
2022-07-29T02:14:00.936Z,16.90
2022-07-29T02:14:42.020Z,16.90
2022-07-29T02:15:17.233Z,16.90
2022-07-29T02:15:52.874Z,16.90
2022-07-29T02:16:29.807Z,16.90
2022-07-29T02:17:03.175Z,16.90
2022-07-29T02:17:46.666Z,16.90
2022-07-29T02:18:21.508Z,16.90
2022-07-29T02:18:56.929Z,16.80
2022-07-29T02:19:32.738Z,16.80
2022-07-29T02:20:06.161Z,16.80
2022-07-29T02:20:40.977Z,16.80
2022-07-29T02:21:17.026Z,16.80
2022-07-29T02:21:49.921Z,16.90
2022-07-29T02:22:23.778Z,17.10
2022-07-29T02:22:58.195Z,16.80
2022-07-29T02:23:50.634Z,16.80
2022-07-29T02:24:25.625Z,16.80
2022-07-29T02:24:59.477Z,16.80
2022-07-29T02:25:37.460Z,16.80
2022-07-29T02:26:10.744Z,16.80
2022-07-29T02:26:45.352Z,16.80
2022-07-29T02:27:19.812Z,16.70
2022-07-29T02:27:53.183Z,16.70
2022-07-29T02:28:28.658Z,16.80
2022-07-29T02:29:03.134Z,16.80
2022-07-29T02:29:37.741Z,16.80
2022-07-29T02:30:11.650Z,16.80
2022-07-29T02:30:45.529Z,16.70
2022-07-29T02:31:21.762Z,16.80
2022-07-29T02:31:55.998Z,16.70
2022-07-29T02:32:30.363Z,16.70
2022-07-29T02:33:03.747Z,16.70
2022-07-29T02:33:36.891Z,16.70
2022-07-29T02:34:12.828Z,16.70
2022-07-29T02:34:47.305Z,16.70
2022-07-29T02:35:21.110Z,16.90
2022-07-29T02:35:53.714Z,16.70
2022-07-29T02:36:26.987Z,16.70
2022-07-29T02:37:00.773Z,16.70
2022-07-29T02:37:33.901Z,16.70
2022-07-29T02:38:25.047Z,16.70
2022-07-29T02:39:01.467Z,16.80
2022-07-29T02:39:34.978Z,17.10
2022-07-29T02:40:11.955Z,16.70
2022-07-29T02:40:45.119Z,16.70
2022-07-29T02:41:30.602Z,16.70
2022-07-29T02:42:08.075Z,16.70
2022-07-29T02:42:44.794Z,16.70
2022-07-29T02:43:18.262Z,16.70
2022-07-29T02:43:56.042Z,16.70
2022-07-29T02:44:32.749Z,16.70
2022-07-29T02:45:07.211Z,16.70
2022-07-29T02:45:39.827Z,16.70
2022-07-29T02:46:28.896Z,16.60
2022-07-29T02:47:31.528Z,16.60
2022-07-29T02:48:17.618Z,16.60
2022-07-29T02:49:03.961Z,16.60
2022-07-29T02:49:47.542Z,16.60
2022-07-29T02:50:29.033Z,16.60
2022-07-29T02:51:44.022Z,16.60
2022-07-29T02:52:15.202Z,16.60
2022-07-29T02:53:04.415Z,16.60
2022-07-29T02:53:39.518Z,17.40
2022-07-29T02:54:17.153Z,16.60
2022-07-29T02:55:03.119Z,16.60
2022-07-29T02:55:41.573Z,16.60
2022-07-29T02:56:17.087Z,16.60
2022-07-29T02:56:50.207Z,16.60
2022-07-29T02:57:31.067Z,16.60
2022-07-29T02:58:08.392Z,16.60
2022-07-29T02:58:43.616Z,16.60
2022-07-29T02:59:22.955Z,16.60
2022-07-29T03:00:00.499Z,16.60
2022-07-29T03:00:38.208Z,16.60
2022-07-29T03:01:21.661Z,16.60
2022-07-29T03:01:56.633Z,16.60
2022-07-29T03:02:32.057Z,16.60
2022-07-29T03:03:09.586Z,16.60
2022-07-29T03:03:45.439Z,16.60
2022-07-29T03:04:21.152Z,16.60
2022-07-29T03:04:56.396Z,16.60
2022-07-29T03:05:31.988Z,16.50
2022-07-29T03:06:05.965Z,16.60
2022-07-29T03:06:39.556Z,16.60
2022-07-29T03:07:15.280Z,16.50
2022-07-29T03:08:05.923Z,16.50
2022-07-29T03:08:38.030Z,16.60
2022-07-29T03:09:13.764Z,16.60
2022-07-29T03:09:47.096Z,16.50
2022-07-29T03:10:19.464Z,16.60
2022-07-29T03:10:53.103Z,16.50
2022-07-29T03:11:42.235Z,17.00
2022-07-29T03:12:19.130Z,16.60
2022-07-29T03:12:51.760Z,16.50
2022-07-29T03:13:24.698Z,16.80
2022-07-29T03:13:57.478Z,16.50
2022-07-29T03:14:31.243Z,16.60
2022-07-29T03:15:03.982Z,16.50
2022-07-29T03:15:37.330Z,16.50
2022-07-29T03:16:10.331Z,16.50
2022-07-29T03:16:43.052Z,16.40
2022-07-29T03:17:15.697Z,16.50
2022-07-29T03:17:47.945Z,16.50
2022-07-29T03:18:20.086Z,16.50
2022-07-29T03:18:53.227Z,16.50
2022-07-29T03:19:25.314Z,16.40
2022-07-29T03:19:57.681Z,16.50
2022-07-29T03:20:30.439Z,16.50
2022-07-29T03:21:03.451Z,16.40
2022-07-29T03:21:35.545Z,16.40
2022-07-29T03:22:07.981Z,16.40
2022-07-29T03:22:44.597Z,16.50
2022-07-29T03:23:24.706Z,16.40
2022-07-29T03:23:56.565Z,16.40
2022-07-29T03:24:36.904Z,16.40
2022-07-29T03:25:10.178Z,16.40
2022-07-29T03:25:42.087Z,16.40
2022-07-29T03:26:14.178Z,16.40
2022-07-29T03:26:46.079Z,16.40
2022-07-29T03:27:18.163Z,16.40
2022-07-29T03:27:50.230Z,16.40
2022-07-29T03:28:23.077Z,16.40
2022-07-29T03:28:58.746Z,16.50
2022-07-29T03:29:33.781Z,16.40
2022-07-29T03:30:08.269Z,16.40
2022-07-29T03:30:41.042Z,16.40
2022-07-29T03:31:16.349Z,16.40
2022-07-29T03:31:48.209Z,16.40
2022-07-29T03:32:22.380Z,16.40
2022-07-29T03:32:58.807Z,16.40
2022-07-29T03:33:31.329Z,16.40
2022-07-29T03:34:03.081Z,16.40
2022-07-29T03:34:35.096Z,16.70
2022-07-29T03:35:07.853Z,16.40
2022-07-29T03:35:39.814Z,16.30
2022-07-29T03:36:11.767Z,16.40
2022-07-29T03:36:43.641Z,16.70
2022-07-29T03:37:15.432Z,16.50
2022-07-29T03:37:48.079Z,16.30
2022-07-29T03:38:21.719Z,16.40
2022-07-29T03:38:53.762Z,16.30
2022-07-29T03:39:32.321Z,16.30
2022-07-29T03:40:10.575Z,16.30
2022-07-29T03:40:49.653Z,16.30
2022-07-29T03:41:24.614Z,16.30
2022-07-29T03:41:58.594Z,16.30
2022-07-29T03:42:36.634Z,16.30
2022-07-29T03:43:10.946Z,16.30
2022-07-29T03:43:49.783Z,16.30
2022-07-29T03:44:24.892Z,16.30
2022-07-29T03:44:59.342Z,16.30
2022-07-29T03:45:34.867Z,16.30
2022-07-29T03:46:11.094Z,16.30
2022-07-29T03:46:45.541Z,16.20
2022-07-29T03:47:21.472Z,16.30
2022-07-29T03:48:06.470Z,16.30
2022-07-29T03:48:43.011Z,16.20
2022-07-29T03:49:17.436Z,16.20
2022-07-29T03:49:52.746Z,16.30
2022-07-29T03:50:24.864Z,16.30
2022-07-29T03:50:56.833Z,16.40
2022-07-29T03:51:33.445Z,18.20
2022-07-29T03:52:07.071Z,16.20
2022-07-29T03:52:39.136Z,16.20
2022-07-29T03:53:11.213Z,16.20
2022-07-29T03:53:43.697Z,16.20
2022-07-29T03:54:15.835Z,16.20
2022-07-29T03:54:48.529Z,16.40
2022-07-29T03:55:20.757Z,16.20
2022-07-29T03:56:00.093Z,16.20
2022-07-29T03:56:35.940Z,16.20
2022-07-29T03:57:10.701Z,16.20
2022-07-29T03:57:45.345Z,16.20
2022-07-29T03:58:19.433Z,16.40
2022-07-29T03:58:53.468Z,16.10
2022-07-29T03:59:25.528Z,16.20
2022-07-29T03:59:58.234Z,16.10
2022-07-29T04:00:31.946Z,16.20
2022-07-29T04:01:04.340Z,16.00
2022-07-29T04:01:37.246Z,16.20
2022-07-29T04:02:12.077Z,16.10
2022-07-29T04:02:49.664Z,16.10
2022-07-29T04:03:22.851Z,16.10
2022-07-29T04:03:54.955Z,16.10
2022-07-29T04:04:27.366Z,16.10
2022-07-29T04:05:00.866Z,16.10
2022-07-29T04:05:32.725Z,16.10
2022-07-29T04:06:07.067Z,16.10
2022-07-29T04:06:44.199Z,16.10
2022-07-29T04:07:16.639Z,16.00
2022-07-29T04:07:49.427Z,16.10
2022-07-29T04:08:21.259Z,16.10
2022-07-29T04:08:53.089Z,16.00
2022-07-29T04:09:24.902Z,16.00
2022-07-29T04:09:56.822Z,16.00
2022-07-29T04:10:32.005Z,16.00
2022-07-29T04:11:06.851Z,16.00
2022-07-29T04:12:02.665Z,16.00
2022-07-29T04:12:34.130Z,16.40
2022-07-29T04:13:05.913Z,16.30
2022-07-29T04:13:37.712Z,16.00
2022-07-29T04:14:09.634Z,16.10
2022-07-29T04:14:41.388Z,16.40
2022-07-29T04:15:13.263Z,16.00
2022-07-29T04:15:45.088Z,16.00
2022-07-29T04:16:17.020Z,16.00
2022-07-29T04:16:48.917Z,16.00
2022-07-29T04:17:20.748Z,16.30
2022-07-29T04:17:52.523Z,16.00
2022-07-29T04:18:24.524Z,16.00
2022-07-29T04:18:56.383Z,16.00
2022-07-29T04:19:28.261Z,16.00
2022-07-29T04:20:00.170Z,16.00
2022-07-29T04:20:31.948Z,16.00
2022-07-29T04:21:04.939Z,16.00
2022-07-29T04:21:42.980Z,16.00
2022-07-29T04:22:14.987Z,16.70
2022-07-29T04:22:46.727Z,16.40
2022-07-29T04:23:18.516Z,15.90
2022-07-29T04:23:52.870Z,16.00
2022-07-29T04:24:25.981Z,15.90
2022-07-29T04:25:01.769Z,17.10
2022-07-29T04:25:39.520Z,15.90
2022-07-29T04:26:11.791Z,15.90
2022-07-29T04:26:44.291Z,16.00
2022-07-29T04:27:16.057Z,15.90
2022-07-29T04:28:08.133Z,15.90
2022-07-29T04:28:40.750Z,15.90
2022-07-29T04:29:12.947Z,16.50
2022-07-29T04:29:57.154Z,15.90
2022-07-29T04:30:31.329Z,15.90
2022-07-29T04:31:03.152Z,15.90
2022-07-29T04:31:35.145Z,15.80
2022-07-29T04:32:07.306Z,15.90
2022-07-29T04:32:39.111Z,15.90
2022-07-29T04:33:11.176Z,15.90
2022-07-29T04:33:43.020Z,15.80
2022-07-29T04:34:15.060Z,15.90
2022-07-29T04:34:47.549Z,15.90
2022-07-29T04:35:20.682Z,15.90
2022-07-29T04:35:54.992Z,15.80
2022-07-29T04:36:28.739Z,15.90
2022-07-29T04:37:01.703Z,15.90
2022-07-29T04:37:33.631Z,15.90
2022-07-29T04:38:06.927Z,15.90
2022-07-29T04:38:39.479Z,15.80
2022-07-29T04:39:11.345Z,15.80
2022-07-29T04:39:43.173Z,15.90
2022-07-29T04:40:15.234Z,15.90
2022-07-29T04:40:47.305Z,16.60
2022-07-29T04:41:21.634Z,16.10
2022-07-29T04:41:56.358Z,15.90
2022-07-29T04:42:29.426Z,16.40
2022-07-29T04:43:05.744Z,16.50
2022-07-29T04:43:38.063Z,15.90
2022-07-29T04:44:09.871Z,16.00
2022-07-29T04:44:43.200Z,15.90
2022-07-29T04:45:15.222Z,15.80
2022-07-29T04:45:48.004Z,15.80
2022-07-29T04:46:19.993Z,15.90
2022-07-29T04:46:51.957Z,16.00
2022-07-29T04:47:23.739Z,16.10
2022-07-29T04:47:56.512Z,16.30
2022-07-29T04:48:28.987Z,15.90
2022-07-29T04:49:00.897Z,16.50
2022-07-29T04:49:32.724Z,15.90
2022-07-29T04:50:06.827Z,15.90
2022-07-29T04:50:42.109Z,15.80
2022-07-29T04:51:14.554Z,15.80
2022-07-29T04:51:46.368Z,15.80
2022-07-29T04:52:18.202Z,15.90
2022-07-29T04:52:50.280Z,15.90
2022-07-29T04:53:22.118Z,15.90
2022-07-29T04:53:53.894Z,15.80
2022-07-29T04:54:25.768Z,15.80
2022-07-29T04:54:58.262Z,16.00
2022-07-29T04:55:30.101Z,15.90
2022-07-29T04:56:01.875Z,15.80
2022-07-29T04:56:33.689Z,15.90
2022-07-29T04:57:05.683Z,15.90
2022-07-29T04:57:37.500Z,15.90
2022-07-29T04:58:09.354Z,15.80
2022-07-29T04:58:41.161Z,15.90
2022-07-29T04:59:13.289Z,15.90
2022-07-29T04:59:45.104Z,15.90
2022-07-29T05:00:17.099Z,15.80
2022-07-29T05:00:48.892Z,15.80
2022-07-29T05:01:21.061Z,15.80
2022-07-29T05:01:52.901Z,15.80
2022-07-29T05:02:24.912Z,15.80
2022-07-29T05:02:56.992Z,16.00
2022-07-29T05:03:28.807Z,15.90
2022-07-29T05:04:00.918Z,12.80
2022-07-29T05:04:32.730Z,15.80
2022-07-29T05:05:05.003Z,15.70
2022-07-29T05:05:36.967Z,15.80
2022-07-29T05:06:08.784Z,15.80
2022-07-29T05:06:40.614Z,15.80
2022-07-29T05:07:12.587Z,15.80
2022-07-29T05:07:44.391Z,15.80
2022-07-29T05:08:16.183Z,15.80
2022-07-29T05:08:47.971Z,15.80
2022-07-29T05:09:19.800Z,15.80
2022-07-29T05:09:51.590Z,15.90
2022-07-29T05:10:23.801Z,15.80
2022-07-29T05:10:55.643Z,15.80
2022-07-29T05:11:30.580Z,15.90
2022-07-29T05:12:02.743Z,15.70
2022-07-29T05:12:34.636Z,15.80
2022-07-29T05:13:07.717Z,15.90
2022-07-29T05:13:45.885Z,15.90
2022-07-29T05:14:19.384Z,15.80
2022-07-29T05:14:51.621Z,15.80
2022-07-29T05:15:23.436Z,15.80
2022-07-29T05:15:55.379Z,15.90
2022-07-29T05:16:27.368Z,15.80
2022-07-29T05:16:59.330Z,15.80
2022-07-29T05:17:31.075Z,15.90
2022-07-29T05:18:02.990Z,15.80
2022-07-29T05:18:34.759Z,15.90
2022-07-29T05:19:09.714Z,16.00
2022-07-29T05:19:45.543Z,15.80
2022-07-29T05:20:17.420Z,15.90
2022-07-29T05:20:49.251Z,15.90
2022-07-29T05:21:21.764Z,15.80
2022-07-29T05:21:53.549Z,15.80
2022-07-29T05:22:25.403Z,15.80
2022-07-29T05:23:01.509Z,15.90
2022-07-29T05:23:33.382Z,15.80
2022-07-29T05:24:05.535Z,15.90
2022-07-29T05:24:37.310Z,15.90
2022-07-29T05:25:10.569Z,15.90
2022-07-29T05:25:44.235Z,15.90
2022-07-29T05:26:16.774Z,15.80
2022-07-29T05:26:48.576Z,16.00
2022-07-29T05:27:20.396Z,16.10
2022-07-29T05:27:53.159Z,15.80
2022-07-29T05:28:24.961Z,15.90
2022-07-29T05:28:57.938Z,15.80
2022-07-29T05:29:44.194Z,15.90
2022-07-29T05:30:17.870Z,14.50
2022-07-29T05:30:50.411Z,16.00
2022-07-29T05:31:22.782Z,15.90
2022-07-29T05:31:54.671Z,16.60
2022-07-29T05:32:26.503Z,15.90
2022-07-29T05:32:58.313Z,15.90
2022-07-29T05:33:36.074Z,15.90
2022-07-29T05:34:08.656Z,15.90
2022-07-29T05:34:51.279Z,15.90
2022-07-29T05:35:23.644Z,15.90
2022-07-29T05:36:00.398Z,15.90
2022-07-29T05:36:32.791Z,15.90
2022-07-29T05:37:04.597Z,16.00
2022-07-29T05:37:36.592Z,15.90
2022-07-29T05:38:08.393Z,15.90
2022-07-29T05:38:40.183Z,15.90
2022-07-29T05:39:13.765Z,15.90
2022-07-29T05:39:48.969Z,16.30
2022-07-29T05:40:22.666Z,15.80
2022-07-29T05:40:56.951Z,15.90
2022-07-29T05:41:28.795Z,16.00
2022-07-29T05:42:00.568Z,15.90
2022-07-29T05:42:32.506Z,15.90
2022-07-29T05:43:04.301Z,16.00
2022-07-29T05:43:36.183Z,15.90
2022-07-29T05:44:08.190Z,15.90
2022-07-29T05:44:41.015Z,15.90
2022-07-29T05:45:12.915Z,15.80
2022-07-29T05:45:50.015Z,15.90
2022-07-29T05:46:22.349Z,15.90
2022-07-29T05:46:54.264Z,15.90
2022-07-29T05:47:26.176Z,15.90
2022-07-29T05:47:58.045Z,15.90
2022-07-29T05:48:29.793Z,15.90
2022-07-29T05:49:02.128Z,15.90
2022-07-29T05:49:34.184Z,15.90
2022-07-29T05:50:06.671Z,15.80
2022-07-29T05:50:38.443Z,15.90
2022-07-29T05:51:19.701Z,17.70
2022-07-29T05:51:51.640Z,15.90
2022-07-29T05:52:23.915Z,15.90
2022-07-29T05:52:55.795Z,15.90
2022-07-29T05:53:27.649Z,15.90
2022-07-29T05:53:59.594Z,15.90
2022-07-29T05:54:31.613Z,15.90
2022-07-29T05:55:05.242Z,15.90
2022-07-29T05:55:37.044Z,15.90
2022-07-29T05:56:10.636Z,15.90
2022-07-29T05:56:42.414Z,15.90
2022-07-29T05:57:20.063Z,15.90
2022-07-29T05:57:53.345Z,15.80
2022-07-29T05:58:25.133Z,18.30
2022-07-29T05:58:56.943Z,16.10
2022-07-29T05:59:30.578Z,15.90
2022-07-29T06:00:03.020Z,16.00
2022-07-29T06:00:45.113Z,15.90
2022-07-29T06:01:17.081Z,15.90
2022-07-29T06:01:49.016Z,16.00
2022-07-29T06:02:21.004Z,15.90
2022-07-29T06:02:52.766Z,15.90
2022-07-29T06:03:24.530Z,16.50
2022-07-29T06:03:56.400Z,15.90
2022-07-29T06:04:28.394Z,15.80
2022-07-29T06:05:00.380Z,15.90
2022-07-29T06:05:32.192Z,16.60
2022-07-29T06:06:04.290Z,15.90
2022-07-29T06:06:36.267Z,15.90
2022-07-29T06:07:08.401Z,15.90
2022-07-29T06:07:40.224Z,15.90
2022-07-29T06:08:22.740Z,15.90
2022-07-29T06:08:54.522Z,16.00
2022-07-29T06:09:26.966Z,15.90
2022-07-29T06:09:58.737Z,15.90
2022-07-29T06:10:30.594Z,15.90
2022-07-29T06:11:02.903Z,15.90
2022-07-29T06:11:34.664Z,15.90
2022-07-29T06:12:08.550Z,16.10
2022-07-29T06:12:40.574Z,18.40
2022-07-29T06:13:13.808Z,15.90
2022-07-29T06:13:45.809Z,15.90
2022-07-29T06:14:17.956Z,16.10
2022-07-29T06:14:53.904Z,15.90
2022-07-29T06:15:26.027Z,15.90
2022-07-29T06:15:57.853Z,16.00
2022-07-29T06:16:31.127Z,15.90
2022-07-29T06:17:02.991Z,15.90
2022-07-29T06:17:34.774Z,15.80
2022-07-29T06:18:10.076Z,16.00
2022-07-29T06:18:42.905Z,15.90
2022-07-29T06:19:14.688Z,15.90
2022-07-29T06:19:47.147Z,15.90
2022-07-29T06:20:19.201Z,16.20
2022-07-29T06:20:58.847Z,15.90
2022-07-29T06:21:30.596Z,16.10
2022-07-29T06:22:02.726Z,15.90
2022-07-29T06:22:34.538Z,16.20
2022-07-29T06:23:06.417Z,15.90
2022-07-29T06:23:39.418Z,15.90
2022-07-29T06:24:16.024Z,15.90
2022-07-29T06:24:48.016Z,15.90
2022-07-29T06:25:19.932Z,15.90
2022-07-29T06:25:51.688Z,16.00
2022-07-29T06:26:30.852Z,15.90
2022-07-29T06:27:03.902Z,16.00
2022-07-29T06:27:35.762Z,16.00
2022-07-29T06:28:07.666Z,16.00
2022-07-29T06:28:39.473Z,16.00
2022-07-29T06:29:12.043Z,16.00
2022-07-29T06:29:43.794Z,16.00
2022-07-29T06:30:15.659Z,16.00
2022-07-29T06:30:47.558Z,15.90
2022-07-29T06:31:19.429Z,16.00
2022-07-29T06:31:51.526Z,16.00
2022-07-29T06:32:23.323Z,16.40
2022-07-29T06:32:59.342Z,15.90
2022-07-29T06:33:31.195Z,16.00
2022-07-29T06:34:03.470Z,16.00
2022-07-29T06:34:35.878Z,15.90
2022-07-29T06:35:37.677Z,16.00
2022-07-29T06:36:00.669Z,15.90
2022-07-29T06:36:37.743Z,16.00
2022-07-29T06:37:11.249Z,16.00
2022-07-29T06:37:47.722Z,16.00
2022-07-29T06:38:30.107Z,13.70
2022-07-29T06:39:07.943Z,15.90
2022-07-29T06:39:39.754Z,16.10
2022-07-29T06:40:30.906Z,16.00
2022-07-29T06:41:13.530Z,16.00
2022-07-29T06:41:50.055Z,16.00
2022-07-29T06:42:21.841Z,16.00
2022-07-29T06:42:53.636Z,16.00
2022-07-29T06:43:25.440Z,16.10
2022-07-29T06:43:58.171Z,16.00
2022-07-29T06:44:30.675Z,16.10
2022-07-29T06:45:06.187Z,16.00
2022-07-29T06:45:42.488Z,16.00
2022-07-29T06:46:16.581Z,16.00
2022-07-29T06:46:50.948Z,16.00
2022-07-29T06:47:22.724Z,16.00
2022-07-29T06:47:54.578Z,16.40
2022-07-29T06:48:26.345Z,16.00
2022-07-29T06:48:58.331Z,16.00
2022-07-29T06:49:30.232Z,16.00
2022-07-29T06:50:02.032Z,16.10
2022-07-29T06:50:34.350Z,16.00
2022-07-29T06:51:07.215Z,16.00
2022-07-29T06:51:39.085Z,16.00
2022-07-29T06:52:10.847Z,16.10
2022-07-29T06:52:42.589Z,16.10
2022-07-29T06:53:14.313Z,16.00
2022-07-29T06:54:00.238Z,16.10
2022-07-29T06:54:34.944Z,16.00
2022-07-29T06:55:07.383Z,16.10
2022-07-29T06:55:39.243Z,16.10
2022-07-29T06:56:11.296Z,16.20
2022-07-29T06:56:43.945Z,16.10
2022-07-29T06:57:15.755Z,16.10
2022-07-29T06:57:47.557Z,17.30
2022-07-29T06:58:23.469Z,16.10
2022-07-29T06:59:01.510Z,16.10
2022-07-29T06:59:35.822Z,16.10
2022-07-29T07:00:08.859Z,16.10
2022-07-29T07:00:40.856Z,16.10
2022-07-29T07:01:12.721Z,16.20
2022-07-29T07:01:45.860Z,16.20
2022-07-29T07:02:17.742Z,16.10
2022-07-29T07:02:49.644Z,16.20
2022-07-29T07:03:21.523Z,16.20
2022-07-29T07:03:53.333Z,16.20
2022-07-29T07:04:25.067Z,16.20
2022-07-29T07:04:56.897Z,16.20
2022-07-29T07:05:28.643Z,16.20
2022-07-29T07:06:01.722Z,16.20
2022-07-29T07:06:33.554Z,16.20
2022-07-29T07:07:05.450Z,16.30
2022-07-29T07:07:37.250Z,16.30
2022-07-29T07:08:09.079Z,16.20
2022-07-29T07:08:40.892Z,16.30
2022-07-29T07:09:12.724Z,16.40
2022-07-29T07:09:44.584Z,16.30
2022-07-29T07:10:16.483Z,19.20
2022-07-29T07:10:48.929Z,16.30
2022-07-29T07:11:20.892Z,16.30
2022-07-29T07:11:52.696Z,16.30
2022-07-29T07:12:24.469Z,16.30
2022-07-29T07:12:56.272Z,17.10
2022-07-29T07:13:29.063Z,16.30
2022-07-29T07:14:03.712Z,16.30
2022-07-29T07:14:36.084Z,16.50
2022-07-29T07:15:08.172Z,16.30
2022-07-29T07:15:40.428Z,16.30
2022-07-29T07:16:12.345Z,16.40
2022-07-29T07:16:44.343Z,16.40
2022-07-29T07:17:16.242Z,16.40
2022-07-29T07:17:49.129Z,16.50
2022-07-29T07:18:20.950Z,16.40
2022-07-29T07:18:52.747Z,16.40
2022-07-29T07:19:24.535Z,16.40
2022-07-29T07:19:56.331Z,16.50
2022-07-29T07:20:28.162Z,16.40
2022-07-29T07:21:00.109Z,16.50
2022-07-29T07:21:33.319Z,16.50
2022-07-29T07:22:05.107Z,16.50
2022-07-29T07:22:39.010Z,16.70
2022-07-29T07:23:11.707Z,16.50
2022-07-29T07:23:43.488Z,16.50
2022-07-29T07:24:15.637Z,16.50
2022-07-29T07:24:47.586Z,16.50
2022-07-29T07:25:19.449Z,16.80
2022-07-29T07:25:52.060Z,16.50
2022-07-29T07:26:24.044Z,16.60
2022-07-29T07:26:55.885Z,16.60
2022-07-29T07:27:28.394Z,16.60
2022-07-29T07:28:00.704Z,16.60
2022-07-29T07:28:32.569Z,16.60
2022-07-29T07:29:04.407Z,16.60
2022-07-29T07:29:36.358Z,16.60
2022-07-29T07:30:09.591Z,16.60